Latest Weather Observations for Grove

IDT60801

Issued at 7:01 pm EDT Monday 8 February 2016 (issued every 30 minutes, with the page automatically refreshed every 10 minutes)

About weather observations | Map of weather stations | Latest weather observations for TAS | Other Formats
Station Details ID: 094220 Name: GROVE (RESEARCH STATION) Lat: -42.99 Lon: 147.07 Height: 65.0 m
Data from the previous 72 hours. | See also: Recent months at Grove
Date/Time
EDT
Temp
°C
App
Temp
°C
Dew
Point
Rel
Hum
%
Delta-T
°C
Wind Press
QNH
hPa
Press
MSL
hPa
Rain
since 9 am
mm
Dir
 
Spd
km/h
Gust
km/h
Spd
kts
Gust
kts
08/07:00pm 21.0 16.7 7.7 42 6.9 WSW 20 32 11 17 - - 0.0
08/06:30pm 21.7 17.2 6.9 38 7.6 WSW 20 28 11 15 - - 0.0
08/06:00pm 22.9 18.6 7.9 38 7.9 WSW 20 30 11 16 - - 0.0
08/05:30pm 23.1 18.8 7.7 37 8.1 SW 20 32 11 17 - - 0.0
08/05:00pm 24.7 20.3 7.2 32 9.2 W 20 32 11 17 - - 0.0
08/04:30pm 24.4 19.2 7.3 33 9.0 WSW 24 39 13 21 - - 0.0
08/04:00pm 24.8 20.9 7.1 32 9.3 W 17 30 9 16 - - 0.0
08/03:30pm 24.4 20.1 7.8 34 8.8 SSW 20 37 11 20 - - 0.0
08/03:00pm 24.0 19.4 8.0 36 8.5 SW 22 39 12 21 - - 0.0
08/02:30pm 24.5 20.0 8.5 36 8.6 WSW 22 33 12 18 - - 0.0
08/02:00pm 24.5 20.4 8.7 36 8.5 WSW 20 32 11 17 - - 0.0
08/01:30pm 23.4 19.4 8.1 37 8.1 SSW 19 32 10 17 - - 0.0
08/01:00pm 24.1 19.9 8.1 36 8.5 SW 20 37 11 20 - - 0.0
08/12:30pm 23.6 18.9 7.9 36 8.3 W 22 30 12 16 - - 0.0
08/12:00pm 22.8 18.4 7.2 36 8.1 W 20 28 11 15 - - 0.0
08/11:30am 23.2 20.0 8.3 38 7.9 W 15 24 8 13 - - 0.0
08/11:00am 21.5 17.3 8.2 42 7.0 SW 20 32 11 17 - - 0.0
08/10:30am 20.2 16.2 9.1 49 5.9 SW 20 26 11 14 - - 0.0
08/10:00am 19.2 17.5 11.2 60 4.4 SSW 11 19 6 10 - - 0.0
08/09:30am 19.7 17.9 10.7 56 4.9 SSW 11 15 6 8 - - 0.0
08/09:00am 18.0 17.7 13.4 74 2.6 SW 7 11 4 6 - - 0.0
08/08:30am 16.4 15.9 13.9 85 1.4 ENE 9 11 5 6 - - 0.0
08/08:00am 14.5 14.3 13.6 94 0.5 NE 7 9 4 5 - - 0.0
08/07:30am 12.8 12.3 12.6 99 0.1 E 7 9 4 5 - - 0.0
08/07:00am 11.0 10.8 10.6 97 0.2 NE 2 7 1 4 - - 0.0
08/06:30am 11.1 11.3 10.7 97 0.2 CALM 0 0 0 0 - - 0.0
08/06:00am 11.5 11.8 10.9 96 0.3 CALM 0 0 0 0 - - 0.0
08/05:30am 12.0 11.7 11.4 96 0.3 NNE 4 7 2 4 - - 0.0
08/05:00am 12.4 12.6 12.0 97 0.2 N 2 7 1 4 - - 0.0
08/04:30am 12.3 11.8 11.9 97 0.2 NNE 6 9 3 5 - - 0.0
08/04:00am 12.8 13.5 12.2 96 0.3 CALM 0 0 0 0 - - 0.0
08/03:30am 13.5 14.4 13.0 97 0.3 CALM 0 0 0 0 - - 0.0
08/03:00am 14.5 15.7 13.8 96 0.4 CALM 0 0 0 0 - - 0.0
08/02:30am 15.2 16.5 14.1 93 0.6 CALM 0 0 0 0 - - 0.0
08/02:00am 15.9 17.3 14.3 90 0.9 CALM 0 0 0 0 - - 0.0
08/01:30am 17.1 18.7 14.9 87 1.3 CALM 0 0 0 0 - - 0.0
08/01:00am 17.1 18.6 14.7 86 1.4 CALM 0 0 0 0 - - 0.0
08/12:30am 17.8 19.3 14.7 82 1.8 CALM 0 0 0 0 - - 0.0
08/12:00am 18.0 19.4 14.5 80 2.0 CALM 0 0 0 0 - - 0.0
 
Date/Time
EDT
Temp
°C
App
Temp
°C
Dew
Point
Rel
Hum
%
Delta-T
°C
Wind Press
QNH
hPa
Press
MSL
hPa
Rain
since 9 am
mm
Dir
 
Spd
km/h
Gust
km/h
Spd
kts
Gust
kts
07/11:30pm 18.3 19.7 14.3 77 2.3 CALM 0 0 0 0 - - 0.0
07/11:00pm 18.6 19.1 13.9 74 2.7 NE 4 7 2 4 - - 0.0
07/10:30pm 18.4 18.4 14.2 76 2.4 E 7 11 4 6 - - 0.0
07/10:00pm 18.5 18.4 14.0 75 2.6 NE 7 11 4 6 - - 0.0
07/09:30pm 18.8 18.8 14.1 74 2.7 NNE 7 11 4 6 - - 0.0
07/09:00pm 18.7 17.9 14.0 74 2.7 ENE 11 17 6 9 - - 0.0
07/08:30pm 18.9 17.3 13.8 72 2.9 ENE 15 20 8 11 - - 0.0
07/08:00pm 19.2 18.8 14.0 72 3.0 E 9 17 5 9 - - 0.0
07/07:30pm 19.7 18.4 13.8 69 3.4 E 13 19 7 10 - - 0.0
07/07:00pm 20.7 19.9 14.0 65 3.9 E 11 17 6 9 - - 0.0
07/06:30pm 21.3 18.7 13.9 62 4.3 E 20 32 11 17 - - 0.0
07/06:00pm 22.5 19.5 13.7 57 5.1 E 22 33 12 18 - - 0.0
07/05:30pm 22.7 19.9 14.4 59 4.9 E 22 33 12 18 - - 0.0
07/05:00pm 23.4 20.7 14.6 57 5.2 E 22 33 12 18 - - 0.0
07/04:30pm 24.2 21.4 14.4 54 5.8 E 22 32 12 17 - - 0.0
07/04:00pm 24.0 21.5 14.2 54 5.8 E 20 30 11 16 - - 0.0
07/03:30pm 24.2 21.8 14.4 54 5.8 E 20 32 11 17 - - 0.0
07/03:00pm 24.2 22.0 14.8 55 5.6 E 20 32 11 17 - - 0.0
07/02:30pm 24.4 22.5 15.3 57 5.5 E 19 28 10 15 - - 0.0
07/02:00pm 23.7 21.2 14.2 55 5.6 E 20 26 11 14 - - 0.0
07/01:30pm 25.4 24.1 14.9 52 6.3 ENE 15 26 8 14 - - 0.0
07/01:00pm 23.6 24.1 13.9 54 5.7 SSW 4 11 2 6 - - 0.0
07/12:30pm 23.3 22.8 12.7 51 6.1 W 7 13 4 7 - - 0.0
07/12:00pm 22.6 22.6 14.3 59 4.9 E 7 11 4 6 - - 0.0
07/11:30am 21.2 21.1 14.0 63 4.2 N 7 13 4 7 - - 0.0
07/11:00am 20.8 21.3 14.1 65 3.9 SSW 4 9 2 5 - - 0.0
07/10:30am 20.3 20.3 14.3 68 3.5 SW 7 11 4 6 - - 0.0
07/10:00am 20.1 18.9 14.1 68 3.5 SW 13 17 7 9 - - 0.0
07/09:30am 18.6 18.8 14.6 77 2.3 WSW 7 13 4 7 - - 0.0
07/09:00am 18.1 17.8 14.3 78 2.2 SW 9 13 5 7 - - 0.0
07/08:30am 16.8 17.1 14.5 86 1.3 WSW 6 9 3 5 - - 0.0
07/08:00am 15.8 17.1 14.2 90 0.9 CALM 0 6 0 3 - - 0.0
07/07:30am 15.1 15.9 13.7 91 0.8 SW 2 6 1 3 - - 0.0
07/07:00am 15.0 16.2 13.9 93 0.6 CALM 0 0 0 0 - - 0.0
07/06:30am 15.2 16.5 14.0 92 0.7 CALM 0 0 0 0 - - 0.0
07/06:00am 15.1 16.3 13.9 92 0.7 CALM 0 0 0 0 - - 0.0
07/05:30am 14.9 16.1 13.8 93 0.6 CALM 0 0 0 0 - - 0.0
07/05:00am 15.5 16.8 14.1 91 0.8 CALM 0 0 0 0 - - 0.0
07/04:30am 15.3 15.5 14.1 92 0.7 SW 6 9 3 5 - - 0.0
07/04:00am 15.7 17.1 14.5 93 0.7 CALM 0 0 0 0 - - 0.0
07/03:30am 15.8 17.3 14.6 93 0.7 CALM 0 0 0 0 - - 0.0
07/03:00am 15.8 17.3 14.6 93 0.7 CALM 0 0 0 0 - - 0.0
07/02:30am 15.8 16.1 14.4 91 0.8 S 6 6 3 3 - - 0.0
07/02:00am 15.8 17.1 14.2 90 0.9 CALM 0 0 0 0 - - 0.0
07/01:30am 15.8 17.1 14.2 90 0.9 CALM 0 0 0 0 - - 0.0
07/01:00am 15.5 15.7 14.1 91 0.8 NE 6 7 3 4 - - 0.0
07/12:30am 15.1 15.5 13.7 91 0.8 NNE 4 6 2 3 - - 0.0
07/12:00am 14.7 15.8 13.6 93 0.6 CALM 0 0 0 0 - - 0.0
 
Date/Time
EDT
Temp
°C
App
Temp
°C
Dew
Point
Rel
Hum
%
Delta-T
°C
Wind Press
QNH
hPa
Press
MSL
hPa
Rain
since 9 am
mm
Dir
 
Spd
km/h
Gust
km/h
Spd
kts
Gust
kts
06/11:30pm 15.0 15.1 13.8 92 0.7 W 6 6 3 3 - - 0.0
06/11:00pm 15.5 16.7 13.7 89 1.0 CALM 0 0 0 0 - - 0.0
06/10:30pm 16.1 16.3 14.3 89 1.0 W 6 9 3 5 - - 0.0
06/10:00pm 16.9 16.9 14.3 85 1.5 WSW 7 13 4 7 - - 0.0
06/09:30pm 18.3 18.6 14.5 78 2.2 NNW 6 11 3 6 - - 0.0
06/09:00pm 18.6 18.4 14.6 77 2.3 NE 9 13 5 7 - - 0.0
06/08:30pm 19.4 19.1 14.4 73 2.9 N 9 15 5 8 - - 0.0
06/08:00pm 20.0 18.8 13.9 68 3.5 NE 13 19 7 10 - - 0.0
06/07:30pm 20.4 17.9 13.6 65 3.9 E 19 28 10 15 - - 0.0
06/07:00pm 20.8 18.1 12.9 60 4.5 E 19 28 10 15 - - 0.0
06/06:30pm 21.6 18.5 13.3 59 4.8 E 22 30 12 16 - - 0.0
06/06:00pm 21.9 18.7 13.0 57 5.1 E 22 32 12 17 - - 0.0
06/05:30pm 22.5 19.7 13.3 56 5.3 ESE 20 32 11 17 - - 0.0
06/05:00pm 23.4 20.8 13.8 54 5.6 ESE 20 28 11 15 - - 0.0
06/04:30pm 22.6 20.5 13.5 56 5.3 ESE 17 24 9 13 - - 0.0
06/04:00pm 22.3 20.2 13.7 58 5.0 ESE 17 22 9 12 - - 0.0
06/03:30pm 22.3 21.8 14.9 63 4.4 SE 11 20 6 11 - - 0.0
06/03:00pm 22.4 21.8 14.6 61 4.6 SSE 11 20 6 11 - - 0.0
06/02:30pm 21.6 20.3 14.8 65 4.0 SSW 15 22 8 12 - - 0.0
06/02:00pm 21.3 20.7 14.7 66 3.9 SSW 11 19 6 10 - - 0.0
06/01:30pm 21.7 21.5 14.8 65 4.1 SSW 9 17 5 9 - - 0.0
06/01:00pm 22.1 21.8 14.3 61 4.6 SSE 9 15 5 8 - - 0.0
06/12:30pm 23.1 23.3 14.1 57 5.3 SE 6 11 3 6 - - 0.0
06/12:00pm 23.3 23.1 12.9 52 6.0 SSW 6 13 3 7 - - 0.0
06/11:30am 23.0 22.7 13.3 54 5.6 WSW 7 11 4 6 - - 0.0
06/11:00am 22.4 22.1 13.2 56 5.3 SSW 7 13 4 7 - - 0.0
06/10:30am 21.8 21.9 13.9 61 4.6 W 6 7 3 4 - - 0.0
06/10:00am 21.1 21.1 14.1 64 4.1 E 7 9 4 5 - - 0.0
06/09:30am 19.0 19.2 13.0 68 3.4 NE 4 7 2 4 - - 0.0
06/09:00am 17.7 18.3 13.1 74 2.6 E 2 6 1 3 - - 0.0
06/08:30am 15.5 16.3 12.6 83 1.6 CALM 0 6 0 3 - - 0.0
06/08:00am 14.2 14.6 12.6 90 0.9 ENE 2 6 1 3 - - 0.0
06/07:30am 12.4 12.9 11.6 95 0.4 CALM 0 0 0 0 - - 0.0
06/07:00am 10.9 9.9 10.3 96 0.3 NNE 6 7 3 4 - - 0.0
06/06:30am 10.5 9.2 10.1 97 0.2 N 7 7 4 4 - - 0.0
06/06:00am 10.7 9.6 10.1 96 0.3 NE 6 9 3 5 - - 0.0
06/05:30am 10.8 9.8 10.2 96 0.3 NNE 6 7 3 4 - - 0.0
06/05:00am 11.1 11.3 10.5 96 0.3 CALM 0 0 0 0 - - 0.0
06/04:30am 11.4 11.6 10.6 95 0.4 CALM 0 0 0 0 - - 0.0
06/04:00am 11.8 12.1 10.8 94 0.5 CALM 0 4 0 2 - - 0.0
06/03:30am 12.0 11.1 11.2 95 0.4 N 7 7 4 4 - - 0.0
06/03:00am 12.7 12.4 11.6 93 0.6 NE 4 9 2 5 - - 0.0
06/02:30am 13.5 14.1 11.8 89 0.9 CALM 0 6 0 3 - - 0.0
06/02:00am 13.6 14.1 11.7 88 1.0 CALM 0 0 0 0 - - 0.0
06/01:30am 14.9 14.9 12.3 84 1.4 N 4 6 2 3 - - 0.0
06/01:00am 16.0 15.7 12.6 80 1.9 NNE 6 7 3 4 - - 0.0
06/12:30am 16.3 16.3 12.3 77 2.2 ENE 4 6 2 3 - - 0.0
06/12:00am 16.4 14.9 12.0 75 2.4 E 11 17 6 9 - - 0.0
 
Date/Time
EDT
Temp
°C
App
Temp
°C
Dew
Point
Rel
Hum
%
Delta-T
°C
Wind Press
QNH
hPa
Press
MSL
hPa
Rain
since 9 am
mm
Dir
 
Spd
km/h
Gust
km/h
Spd
kts
Gust
kts
05/11:30pm 16.4 15.7 12.0 75 2.4 ENE 7 11 4 6 - - 0.0
05/11:00pm 16.5 15.1 12.1 75 2.4 ENE 11 15 6 8 - - 0.0
05/10:30pm 16.6 16.1 12.2 75 2.4 NE 6 7 3 4 - - 0.0
05/10:00pm 16.9 16.4 12.0 73 2.7 SSE 6 9 3 5 - - 0.0
05/09:30pm 16.8 15.9 11.5 71 2.9 WNW 7 15 4 8 - - 0.0
05/09:00pm 17.0 16.8 11.9 72 2.8 SSW 4 9 2 5 - - 0.0
05/08:30pm 17.4 15.8 11.7 69 3.1 SE 11 15 6 8 - - 0.0
05/08:00pm 17.8 16.3 11.8 68 3.3 ESE 11 19 6 10 - - 0.0
05/07:30pm 18.3 15.2 11.6 65 3.7 E 19 26 10 14 - - 0.0

Other Formats:

Comma delimited format used in spreadsheet applications
http://www.bom.gov.au/fwo/IDT60801/IDT60801.95977.axf

JavaScript Object Notation format (JSON) in row-major order
http://www.bom.gov.au/fwo/IDT60801/IDT60801.95977.json